Route Details

Aircraft Information
Group: North America Fleet
Types: B738, B752, B762, B763
Route Data
Distance: 1035nm
Duration: 2h 54m
Origin METAR: KELP 152351Z 11007G19KT 10SM FEW100 FEW120 35/10 A2991 RMK AO2 SLP046 CB DSNT SW MOV W T03500100 10367 20328 56015 $
Dest. METAR: KRFD 152354Z 00000KT 10SM OVC095 23/17 A3008 RMK AO2 SLP184 T02330167 10267 20233 50002 $
Freight Data
(for Aug 16, 2022)
Load Factor:
33%
Manifested Cargo: 29,965lbs
Financial History
Total Freight: 0lbs
Average Load: 0lbs/flt
Fuel Used: 0lbs
Avg. Fuel Used: 0lbs/flt
Fuel Expense: $0
Avg. Fuel Expense: $0
Avg. Fuel Cost: $0/lbs
Total Gross Income: $0
Pilot Pay: $0
Total Expenses: $0
Total Revenue: $0
Average Revenue: $0

Capitol Logistics 457




KELP
El Paso International Airport
El Paso, Texas
KRFD
Chicago/Rockford International Airport
Rockford, Illinois

Activity Log

Date Flight Route Aircraft Duration
No Flights Yet